Time;durP1;ratioP1;P1;durP2;ratioP2;P2;SDS_P1;SDS_P2;PMS_P1;PMS_P2;Temp;Humidity;BMP_temperature;BMP_pressure;BME280_temperature;BME280_humidity;BME280_pressure;Samples;Min_cycle;Max_cycle;Signal;HPM_P1;HPM_P2
2022/03/22 00:00:42;;;;;;;;;;;;;;;5.89;100.00;102993.31;5138956;27;20363;-79
2022/03/22 00:03:08;;;;;;;;;;;;;;;5.89;100.00;102997.63;5138356;27;19919;-81
2022/03/22 00:05:34;;;;;;;;;;;;;;;5.90;100.00;102997.75;5120111;27;19931;-81
2022/03/22 00:08:00;;;;;;;;;;;;;;;5.96;100.00;102996.47;5120128;27;19940;-80
2022/03/22 00:10:26;;;;;;;;;;;;;;;5.90;100.00;103000.38;5138137;27;19926;-80
2022/03/22 00:12:51;;;;;;;;;;;;;;;5.90;100.00;102994.22;5137136;27;19915;-79
2022/03/22 00:15:17;;;;;;;;;;;;;;;5.92;100.00;103000.50;5119872;27;20014;-79
2022/03/22 00:17:42;;;;;;;;;;;;;;;5.92;100.00;102990.06;5120165;27;20358;-80
2022/03/22 00:20:10;;;;;;;;;;;;;;;5.93;100.00;102992.81;5120074;27;19915;-81
2022/03/22 00:22:35;;;;;;;;;;;;;;;5.92;100.00;102995.28;5120088;27;19916;-80
2022/03/22 00:25:00;;;;;;;;;;;;;;;5.74;100.00;102991.94;5119405;27;19916;-78
2022/03/22 00:27:26;;;;;;;;;;;;;;;5.79;100.00;102990.63;5138284;27;19915;-79
2022/03/22 00:29:51;;;;;;;;;;;;;;;5.79;100.00;102988.03;5119552;27;19928;-78
2022/03/22 00:32:17;;;;;;;;;;;;;;;5.71;100.00;102989.94;5119491;27;19967;-79
2022/03/22 00:34:45;;;;;;;;;;;;;;;5.70;100.00;102995.03;5120036;27;19927;-78
2022/03/22 00:37:14;;;;;;;;;;;;;;;5.66;100.00;102998.16;5119664;27;19915;-78
2022/03/22 00:39:40;;;;;;;;;;;;;;;5.69;100.00;102999.34;5119636;27;19919;-78
2022/03/22 00:42:06;;;;;;;;;;;;;;;5.69;100.00;102993.22;5137740;27;19915;-80
2022/03/22 00:44:36;;;;;;;;;;;;;;;5.67;100.00;103000.94;5119750;27;19938;-79
2022/03/22 00:47:02;;;;;;;;;;;;;;;5.63;100.00;103004.03;5119845;27;19984;-79
2022/03/22 00:49:27;;;;;;;;;;;;;;;5.57;100.00;103000.88;5119517;27;19915;-81
2022/03/22 00:51:52;;;;;;;;;;;;;;;5.47;100.00;102995.56;5119543;27;19921;-81
2022/03/22 00:54:31;;;;;;;;;;;;;;;5.43;100.00;102991.75;5137051;27;19923;-81
2022/03/22 00:56:56;;;;;;;;;;;;;;;5.43;100.00;102994.38;5099023;28;19916;-81
2022/03/22 01:02:05;;;;;;;;;;;;;;;5.42;100.00;103002.97;5123413;27;20386;-81
2022/03/22 01:04:32;;;;;;;;;;;;;;;5.40;100.00;103000.22;5119307;27;19919;-82
2022/03/22 01:06:57;;;;;;;;;;;;;;;5.44;100.00;103009.28;5116476;27;19920;-81
2022/03/22 01:09:22;;;;;;;;;;;;;;;5.41;100.00;103001.16;5117683;27;19916;-81
2022/03/22 01:11:47;;;;;;;;;;;;;;;5.36;100.00;103000.75;5119400;27;20022;-81
2022/03/22 01:14:14;;;;;;;;;;;;;;;5.34;100.00;103004.91;5119359;27;19919;-81
2022/03/22 01:16:39;;;;;;;;;;;;;;;5.27;100.00;102992.06;5117050;27;19927;-80
2022/03/22 01:19:05;;;;;;;;;;;;;;;5.26;100.00;103000.66;5137595;27;19915;-81
2022/03/22 01:21:30;;;;;;;;;;;;;;;5.29;100.00;102995.72;5118583;27;19922;-81
2022/03/22 01:23:56;;;;;;;;;;;;;;;5.36;100.00;102994.59;5137309;27;20291;-81
2022/03/22 01:26:21;;;;;;;;;;;;;;;5.38;100.00;102993.06;5118821;27;19984;-81
2022/03/22 01:28:46;;;;;;;;;;;;;;;5.37;100.00;103007.78;5119061;27;19922;-81
2022/03/22 01:31:11;;;;;;;;;;;;;;;5.41;100.00;102995.94;5118570;27;20298;-80
2022/03/22 01:33:38;;;;;;;;;;;;;;;5.45;100.00;103002.34;5119096;27;19920;-81
2022/03/22 01:36:03;;;;;;;;;;;;;;;5.48;100.00;103000.94;5133606;27;19927;-81
2022/03/22 01:38:28;;;;;;;;;;;;;;;5.49;100.00;102999.25;5101620;27;19919;-79
2022/03/22 01:40:54;;;;;;;;;;;;;;;5.50;100.00;102996.78;5117658;27;19924;-78
2022/03/22 01:43:21;;;;;;;;;;;;;;;5.51;100.00;103000.31;5118727;27;19958;-79
2022/03/22 01:45:48;;;;;;;;;;;;;;;5.53;100.00;102993.50;5118291;27;19923;-78
2022/03/22 01:48:14;;;;;;;;;;;;;;;5.55;100.00;102992.88;5118490;27;19923;-79
2022/03/22 01:50:41;;;;;;;;;;;;;;;5.53;100.00;102991.84;5118786;27;19916;-79
2022/03/22 01:53:10;;;;;;;;;;;;;;;5.52;100.00;102999.53;5118256;27;19915;-79
2022/03/22 01:55:36;;;;;;;;;;;;;;;5.46;100.00;102992.03;5118214;27;19954;-79
2022/03/22 01:58:01;;;;;;;;;;;;;;;5.37;100.00;102986.88;5118582;27;19927;-80
2022/03/22 02:00:27;;;;;;;;;;;;;;;5.29;100.00;102990.50;5118133;27;19926;-79
2022/03/22 02:05:55;;;;;;;;;;;;;;;5.17;100.00;102989.38;5137041;27;20320;-78
2022/03/22 02:08:27;;;;;;;;;;;;;;;5.19;100.00;102978.31;5136692;27;19979;-80
2022/03/22 02:10:53;;;;;;;;;;;;;;;5.21;100.00;102975.84;5136418;27;20006;-81
2022/03/22 02:13:21;;;;;;;;;;;;;;;5.20;100.00;102979.22;5117871;27;19955;-80
2022/03/22 02:15:49;;;;;;;;;;;;;;;5.20;100.00;102977.53;5118108;27;19919;-78
2022/03/22 02:18:15;;;;;;;;;;;;;;;5.16;100.00;102974.50;5117751;27;19945;-81
2022/03/22 02:20:41;;;;;;;;;;;;;;;5.13;100.00;102976.84;5117760;27;19915;-81
2022/03/22 02:23:07;;;;;;;;;;;;;;;5.13;100.00;102969.91;5135828;27;20293;-79
2022/03/22 02:25:33;;;;;;;;;;;;;;;5.01;100.00;102985.34;5118208;27;19963;-80
2022/03/22 02:27:58;;;;;;;;;;;;;;;5.01;100.00;102980.13;5117870;27;20431;-81
2022/03/22 02:30:24;;;;;;;;;;;;;;;5.04;100.00;102975.19;5117525;27;19923;-79
2022/03/22 02:33:01;;;;;;;;;;;;;;;5.01;100.00;102977.50;5118125;27;20002;-79
2022/03/22 02:35:28;;;;;;;;;;;;;;;5.00;100.00;102975.69;5117914;27;20001;-81
2022/03/22 02:37:55;;;;;;;;;;;;;;;5.01;100.00;102979.22;5117546;27;20001;-79
2022/03/22 02:40:20;;;;;;;;;;;;;;;5.04;100.00;102983.03;5117585;27;19941;-80
2022/03/22 02:42:50;;;;;;;;;;;;;;;5.02;100.00;102974.13;5117744;27;19915;-81
2022/03/22 02:45:16;;;;;;;;;;;;;;;5.01;100.00;102982.72;5135319;27;19968;-80
2022/03/22 02:47:42;;;;;;;;;;;;;;;4.90;100.00;102983.44;5136015;27;19920;-81
2022/03/22 02:50:08;;;;;;;;;;;;;;;4.83;100.00;102978.41;5135363;27;20014;-80
2022/03/22 02:52:33;;;;;;;;;;;;;;;4.77;100.00;102978.78;5117508;27;19999;-80
2022/03/22 02:55:01;;;;;;;;;;;;;;;4.80;100.00;102980.72;5117240;27;19924;-80
2022/03/22 02:57:27;;;;;;;;;;;;;;;4.87;100.00;102983.16;5135442;27;20006;-79
2022/03/22 02:59:52;;;;;;;;;;;;;;;4.93;100.00;102978.50;5117503;28;20018;-79
2022/03/22 03:02:17;;;;;;;;;;;;;;;4.96;100.00;102984.00;5116769;27;19920;-81
2022/03/22 03:04:43;;;;;;;;;;;;;;;4.94;100.00;102976.81;5116896;27;19923;-79
2022/03/22 03:07:09;;;;;;;;;;;;;;;4.91;100.00;102980.06;5116739;27;19916;-81
2022/03/22 03:09:35;;;;;;;;;;;;;;;4.93;100.00;102977.59;5117367;27;19922;-81
2022/03/22 03:12:00;;;;;;;;;;;;;;;4.90;100.00;102983.44;5117193;27;19915;-81
2022/03/22 03:14:40;;;;;;;;;;;;;;;4.90;100.00;102985.16;5117017;27;19919;-81
2022/03/22 03:17:06;;;;;;;;;;;;;;;4.91;100.00;102985.28;5116201;27;20063;-79
2022/03/22 03:19:31;;;;;;;;;;;;;;;4.94;100.00;102982.03;5114233;27;19919;-81
2022/03/22 03:21:56;;;;;;;;;;;;;;;4.97;100.00;102975.41;5133692;27;20008;-81
2022/03/22 03:24:22;;;;;;;;;;;;;;;4.98;100.00;102984.16;5114500;27;19947;-81
2022/03/22 03:26:47;;;;;;;;;;;;;;;4.97;100.00;102983.25;5134737;27;20390;-81
2022/03/22 03:29:12;;;;;;;;;;;;;;;4.98;100.00;102977.22;5114474;27;20354;-81
2022/03/22 03:31:37;;;;;;;;;;;;;;;4.97;100.00;102983.25;5115493;28;20297;-81
2022/03/22 03:34:04;;;;;;;;;;;;;;;4.91;100.00;102980.06;5116003;27;20344;-80
2022/03/22 03:36:29;;;;;;;;;;;;;;;4.91;100.00;102985.28;5116455;27;19986;-81
2022/03/22 03:38:54;;;;;;;;;;;;;;;5.00;100.00;102980.91;5116707;27;19951;-80
2022/03/22 03:47:03;;;;;;;;;;;;;;;5.00;100.00;102979.97;5134985;27;19923;-81
2022/03/22 03:47:04;;;;;;;;;;;;;;;5.02;100.00;102989.81;5134765;27;19916;-82
2022/03/22 03:49:34;;;;;;;;;;;;;;;5.06;100.00;102987.47;5116374;28;19967;-80
2022/03/22 03:51:59;;;;;;;;;;;;;;;5.06;100.00;102983.16;5115901;28;19963;-79
2022/03/22 03:54:25;;;;;;;;;;;;;;;5.16;100.00;102990.19;5116062;28;19915;-80
2022/03/22 03:56:50;;;;;;;;;;;;;;;5.13;100.00;102984.66;5115711;28;20079;-79
2022/03/22 03:59:15;;;;;;;;;;;;;;;5.16;100.00;102993.69;5134092;28;19930;-80
2022/03/22 04:01:40;;;;;;;;;;;;;;;5.16;100.00;102992.78;5115805;28;19927;-80
2022/03/22 04:04:12;;;;;;;;;;;;;;;5.20;100.00;102993.22;5133607;28;20395;-80
2022/03/22 04:06:37;;;;;;;;;;;;;;;5.20;100.00;103000.09;5116027;28;19915;-80
2022/03/22 04:09:02;;;;;;;;;;;;;;;5.22;100.00;102995.97;5115721;28;19938;-80
2022/03/22 04:11:27;;;;;;;;;;;;;;;5.22;100.00;102996.88;5115926;28;19964;-80
2022/03/22 04:13:59;;;;;;;;;;;;;;;5.26;100.00;102997.16;5115726;28;19958;-80
2022/03/22 04:16:24;;;;;;;;;;;;;;;5.26;100.00;102992.84;5134183;28;19915;-79
2022/03/22 04:18:50;;;;;;;;;;;;;;;5.25;100.00;103008.38;5116619;28;20096;-79
2022/03/22 04:21:16;;;;;;;;;;;;;;;5.25;100.00;103005.75;5115728;28;19916;-79
2022/03/22 04:23:42;;;;;;;;;;;;;;;5.24;100.00;103007.47;5134538;28;19922;-80
2022/03/22 04:26:07;;;;;;;;;;;;;;;5.22;100.00;103014.25;5115966;28;19924;-79
2022/03/22 04:34:02;;;;;;;;;;;;;;;5.19;100.00;103021.81;5134428;28;19923;-79
2022/03/22 04:36:28;;;;;;;;;;;;;;;5.20;100.00;103023.63;5134465;28;19922;-80
2022/03/22 04:38:54;;;;;;;;;;;;;;;5.20;100.00;103023.63;5116191;28;20349;-79
2022/03/22 04:41:19;;;;;;;;;;;;;;;5.20;100.00;103027.16;5116129;28;20006;-80
2022/03/22 04:43:47;;;;;;;;;;;;;;;5.20;100.00;103023.63;5117355;27;20386;-80
2022/03/22 04:46:17;;;;;;;;;;;;;;;5.20;100.00;103023.63;5119032;27;19916;-79
2022/03/22 04:48:43;;;;;;;;;;;;;;;5.22;100.00;103025.59;5119614;27;19994;-79
2022/03/22 04:56:43;;;;;;;;;;;;;;;5.27;100.00;103035.56;5131727;27;19964;-80
2022/03/22 04:59:08;;;;;;;;;;;;;;;5.25;100.00;103037.09;5118828;27;19922;-80
2022/03/22 05:01:34;;;;;;;;;;;;;;;5.18;100.00;103039.16;5119232;27;19915;-80
2022/03/22 05:04:01;;;;;;;;;;;;;;;5.16;100.00;103034.56;5137014;27;19919;-77
2022/03/22 05:06:26;;;;;;;;;;;;;;;5.09;100.00;103043.50;5118292;27;19962;-78
2022/03/22 05:08:54;;;;;;;;;;;;;;;5.10;100.00;103036.63;5118895;27;19999;-77
2022/03/22 05:11:19;;;;;;;;;;;;;;;5.14;100.00;103046.56;5118910;27;19919;-77
2022/03/22 05:13:46;;;;;;;;;;;;;;;5.13;100.00;103047.34;5118389;27;19915;-78
2022/03/22 05:16:11;;;;;;;;;;;;;;;5.11;100.00;103046.25;5117896;27;19916;-77
2022/03/22 05:18:36;;;;;;;;;;;;;;;5.08;100.00;103045.97;5118829;27;19923;-79
2022/03/22 05:21:04;;;;;;;;;;;;;;;5.02;100.00;103042.03;5118069;27;19998;-79
2022/03/22 05:23:31;;;;;;;;;;;;;;;5.02;100.00;103052.47;5118391;27;19919;-79
2022/03/22 05:25:56;;;;;;;;;;;;;;;4.99;100.00;103059.13;5118421;27;19920;-79
2022/03/22 05:28:21;;;;;;;;;;;;;;;4.98;100.00;103063.41;5117636;27;19926;-80
2022/03/22 05:30:47;;;;;;;;;;;;;;;4.96;100.00;103061.44;5134958;27;20010;-79
2022/03/22 05:33:13;;;;;;;;;;;;;;;4.92;100.00;103069.75;5136349;27;19920;-79
2022/03/22 05:35:39;;;;;;;;;;;;;;;4.99;100.00;103073.06;5119171;27;19915;-78
2022/03/22 05:38:05;;;;;;;;;;;;;;;4.98;100.00;103080.75;5118600;27;20006;-79
2022/03/22 05:40:30;;;;;;;;;;;;;;;4.98;100.00;103075.53;5118663;27;19919;-80
2022/03/22 05:42:55;;;;;;;;;;;;;;;5.03;100.00;103083.03;5118441;27;19916;-80
2022/03/22 05:45:21;;;;;;;;;;;;;;;5.03;100.00;103080.44;5118837;27;20002;-79
2022/03/22 05:47:46;;;;;;;;;;;;;;;4.96;100.00;103080.63;5118421;27;19916;-79
2022/03/22 05:50:11;;;;;;;;;;;;;;;4.90;100.00;103080.03;5136896;27;20002;-80
2022/03/22 05:52:44;;;;;;;;;;;;;;;4.91;100.00;103083.56;5117993;27;20001;-80
2022/03/22 05:55:11;;;;;;;;;;;;;;;4.93;100.00;103093.38;5117403;27;19922;-79
2022/03/22 05:57:36;;;;;;;;;;;;;;;4.95;100.00;103086.59;5136658;27;19983;-80
2022/03/22 06:00:01;;;;;;;;;;;;;;;5.01;100.00;103095.03;5117581;27;20011;-79
2022/03/22 06:02:26;;;;;;;;;;;;;;;5.03;100.00;103095.16;5117984;27;20355;-79
2022/03/22 06:04:53;;;;;;;;;;;;;;;5.08;100.00;103100.81;5117733;27;19912;-78
2022/03/22 06:07:20;;;;;;;;;;;;;;;5.15;100.00;103098.94;5118115;27;19920;-79
2022/03/22 06:09:45;;;;;;;;;;;;;;;5.24;100.00;103106.72;5118331;27;19915;-79
2022/03/22 06:12:10;;;;;;;;;;;;;;;5.28;100.00;103111.44;5135729;27;20006;-79
2022/03/22 06:14:39;;;;;;;;;;;;;;;5.34;100.00;103112.00;5136360;27;19916;-80
2022/03/22 06:17:04;;;;;;;;;;;;;;;5.48;100.00;103108.06;5117168;27;20002;-80
2022/03/22 06:19:29;;;;;;;;;;;;;;;5.59;100.00;103111.69;5117641;27;20057;-80
2022/03/22 06:21:55;;;;;;;;;;;;;;;5.64;100.00;103122.56;5117789;27;20270;-79
2022/03/22 06:24:20;;;;;;;;;;;;;;;5.70;100.00;103123.13;5117758;27;19915;-79
2022/03/22 06:26:45;;;;;;;;;;;;;;;5.84;100.00;103130.56;5118210;27;19916;-78
2022/03/22 06:29:10;;;;;;;;;;;;;;;6.05;100.00;103131.63;5117371;27;19915;-79
2022/03/22 06:31:36;;;;;;;;;;;;;;;6.25;100.00;103136.03;5135920;27;19915;-79
2022/03/22 06:34:01;;;;;;;;;;;;;;;6.46;100.00;103136.13;5117207;27;19926;-79
2022/03/22 06:36:27;;;;;;;;;;;;;;;6.62;100.00;103135.81;5117339;27;20049;-79
2022/03/22 06:38:52;;;;;;;;;;;;;;;6.88;100.00;103127.59;5135824;27;19961;-79
2022/03/22 06:41:18;;;;;;;;;;;;;;;7.37;100.00;103125.69;5117469;27;19916;-79
2022/03/22 06:43:43;;;;;;;;;;;;;;;7.68;100.00;103123.06;5117375;27;19922;-80
2022/03/22 06:46:08;;;;;;;;;;;;;;;7.76;100.00;103123.69;5116478;27;20399;-79
2022/03/22 06:48:34;;;;;;;;;;;;;;;7.87;100.00;103115.91;5116663;27;19916;-80
2022/03/22 06:50:59;;;;;;;;;;;;;;;7.96;100.00;103101.75;5116517;27;20010;-79
2022/03/22 06:53:25;;;;;;;;;;;;;;;8.08;100.00;103108.91;5116880;27;19958;-79
2022/03/22 06:55:51;;;;;;;;;;;;;;;8.25;100.00;103099.81;5114902;27;19916;-78
2022/03/22 06:58:21;;;;;;;;;;;;;;;8.52;100.00;103088.81;5135126;27;20418;-79
2022/03/22 07:00:46;;;;;;;;;;;;;;;8.72;100.00;103088.69;5117298;27;19923;-79
2022/03/22 07:03:13;;;;;;;;;;;;;;;8.44;100.00;103089.09;5116358;27;20359;-79
2022/03/22 07:05:39;;;;;;;;;;;;;;;8.46;100.00;103081.34;5116834;27;19923;-79
2022/03/22 07:08:04;;;;;;;;;;;;;;;8.36;100.00;103081.34;5115755;27;19915;-79
2022/03/22 07:10:33;;;;;;;;;;;;;;;8.12;100.00;103081.22;5099627;27;19919;-79
2022/03/22 07:13:11;;;;;;;;;;;;;;;8.25;100.00;103080.53;5134023;27;19927;-79
2022/03/22 07:15:38;;;;;;;;;;;;;;;8.16;100.00;103078.06;5116680;27;19915;-80
2022/03/22 07:18:05;;;;;;;;;;;;;;;8.27;100.00;103076.31;5134671;27;19947;-79
2022/03/22 07:20:30;;;;;;;;;;;;;;;8.40;100.00;103072.94;5134444;27;19922;-79
2022/03/22 07:22:57;;;;;;;;;;;;;;;8.60;100.00;103080.75;5115877;27;19994;-79
2022/03/22 07:25:23;;;;;;;;;;;;;;;8.89;100.00;103079.50;5115389;27;19915;-80
2022/03/22 07:27:48;;;;;;;;;;;;;;;8.96;100.00;103080.91;5116183;27;19927;-80
2022/03/22 07:30:14;;;;;;;;;;;;;;;8.82;100.00;103079.81;5129261;27;19930;-79
2022/03/22 07:32:40;;;;;;;;;;;;;;;8.80;100.00;103082.31;5095536;28;19920;-79
2022/03/22 07:35:06;;;;;;;;;;;;;;;8.90;100.00;103075.16;5094809;28;20471;-79
2022/03/22 07:37:32;;;;;;;;;;;;;;;9.10;100.00;103082.88;5113395;28;19920;-79
2022/03/22 07:39:58;;;;;;;;;;;;;;;8.94;100.00;103079.88;5111852;28;19916;-79
2022/03/22 07:42:27;;;;;;;;;;;;;;;8.97;100.00;103085.38;5112209;28;19920;-79
2022/03/22 07:45:00;;;;;;;;;;;;;;;9.00;100.00;103089.97;5118102;27;19916;-79
2022/03/22 07:47:26;;;;;;;;;;;;;;;9.17;100.00;103081.66;5115712;28;20476;-78
2022/03/22 07:55:24;;;;;;;;;;;;;;;9.74;100.00;103095.59;5133876;28;19921;-79
2022/03/22 07:57:49;;;;;;;;;;;;;;;9.82;100.00;103099.69;5134002;28;19958;-79
2022/03/22 08:00:14;;;;;;;;;;;;;;;10.32;100.00;103097.28;5115043;28;19951;-79
2022/03/22 08:02:50;;;;;;;;;;;;;;;10.80;100.00;103086.63;5133551;28;20327;-80
2022/03/22 08:05:15;;;;;;;;;;;;;;;11.11;100.00;103087.06;5115554;28;19923;-80
2022/03/22 08:07:40;;;;;;;;;;;;;;;11.26;100.00;103093.41;5097890;28;19919;-80
2022/03/22 08:10:06;;;;;;;;;;;;;;;11.73;100.00;103092.19;5115467;28;19927;-79
2022/03/22 08:12:32;;;;;;;;;;;;;;;11.56;100.00;103095.38;5133780;28;20246;-79
2022/03/22 08:14:58;;;;;;;;;;;;;;;11.86;100.00;103092.16;5115239;28;19967;-79
2022/03/22 08:17:23;;;;;;;;;;;;;;;12.10;100.00;103097.25;5134177;28;19955;-79
2022/03/22 08:19:49;;;;;;;;;;;;;;;12.18;100.00;103097.75;5138089;27;20366;-79
2022/03/22 08:22:14;;;;;;;;;;;;;;;12.21;100.00;103095.31;5137322;27;19916;-79
2022/03/22 08:24:41;;;;;;;;;;;;;;;11.93;100.00;103103.16;5119622;27;19921;-79
2022/03/22 08:27:07;;;;;;;;;;;;;;;12.57;100.00;103095.91;5119882;27;20148;-79
2022/03/22 08:29:32;;;;;;;;;;;;;;;12.66;100.00;103099.13;5119109;27;20009;-80
2022/03/22 08:31:58;;;;;;;;;;;;;;;12.77;100.00;103102.44;5120046;27;19926;-80
2022/03/22 08:34:26;;;;;;;;;;;;;;;13.22;100.00;103111.41;5123391;27;19938;-78
2022/03/22 08:36:51;;;;;;;;;;;;;;;13.23;100.00;103110.56;5119791;27;19930;-78
2022/03/22 08:39:16;;;;;;;;;;;;;;;13.20;100.00;103106.81;5119187;27;20002;-77
2022/03/22 08:41:42;;;;;;;;;;;;;;;13.30;100.00;103111.88;5138031;27;20355;-78
2022/03/22 08:44:09;;;;;;;;;;;;;;;13.39;100.00;103116.81;5118672;27;19930;-78
2022/03/22 08:46:35;;;;;;;;;;;;;;;13.76;100.00;103122.59;5119918;27;20350;-78
2022/03/22 08:49:00;;;;;;;;;;;;;;;13.80;100.00;103127.25;5119040;27;19919;-77
2022/03/22 08:51:26;;;;;;;;;;;;;;;13.84;100.00;103120.38;5119794;27;19958;-78
2022/03/22 08:53:54;;;;;;;;;;;;;;;14.36;100.00;103120.75;5102194;27;19924;-78
2022/03/22 08:56:22;;;;;;;;;;;;;;;14.00;100.00;103120.47;5119278;27;19926;-79
2022/03/22 08:58:48;;;;;;;;;;;;;;;14.06;100.00;103117.28;5132299;27;20026;-78
2022/03/22 09:01:13;;;;;;;;;;;;;;;14.59;100.00;103122.84;5119007;27;20010;-79
2022/03/22 09:03:40;;;;;;;;;;;;;;;14.28;100.00;103127.38;5119148;27;20382;-79
2022/03/22 09:06:08;;;;;;;;;;;;;;;14.16;100.00;103124.91;5119167;27;20251;-79
2022/03/22 09:08:34;;;;;;;;;;;;;;;13.99;100.00;103118.63;5136995;27;19927;-78
2022/03/22 09:10:59;;;;;;;;;;;;;;;14.38;100.00;103130.53;5136785;27;19915;-78
2022/03/22 09:13:28;;;;;;;;;;;;;;;14.08;100.00;103133.25;5137079;27;19919;-80
2022/03/22 09:15:53;;;;;;;;;;;;;;;13.95;100.00;103116.66;5118518;27;20335;-78
2022/03/22 09:18:21;;;;;;;;;;;;;;;13.87;100.00;103128.50;5118237;27;19916;-78
2022/03/22 09:20:46;;;;;;;;;;;;;;;14.17;100.00;103125.84;5114528;28;19924;-80
2022/03/22 09:23:12;;;;;;;;;;;;;;;13.78;100.00;103120.03;5117050;27;19916;-80
2022/03/22 09:25:38;;;;;;;;;;;;;;;13.94;100.00;103124.50;5118908;27;19927;-78
2022/03/22 09:28:06;;;;;;;;;;;;;;;14.36;100.00;103114.56;5134172;27;19920;-79
2022/03/22 09:30:31;;;;;;;;;;;;;;;14.29;100.00;103118.59;5116612;27;20549;-78
2022/03/22 09:32:57;;;;;;;;;;;;;;;14.16;100.00;103116.97;5118744;27;19963;-78
2022/03/22 09:35:23;;;;;;;;;;;;;;;14.21;100.00;103114.56;5086700;28;19930;-78
2022/03/22 09:37:49;;;;;;;;;;;;;;;14.39;100.00;103113.78;5097718;28;19919;-78
2022/03/22 09:40:15;;;;;;;;;;;;;;;14.46;100.00;103108.91;5108438;27;20413;-79
2022/03/22 09:42:45;;;;;;;;;;;;;;;14.50;100.00;103116.22;5118039;27;20324;-78
2022/03/22 09:45:17;;;;;;;;;;;;;;;14.59;100.00;103115.84;5117471;27;19915;-79
2022/03/22 09:47:42;;;;;;;;;;;;;;;14.73;100.00;103121.94;5116023;27;20354;-79
2022/03/22 09:50:09;;;;;;;;;;;;;;;14.64;100.00;103116.13;5118273;27;19930;-79
2022/03/22 09:52:35;;;;;;;;;;;;;;;14.67;100.00;103119.84;5116599;27;20286;-79
2022/03/22 09:55:00;;;;;;;;;;;;;;;14.37;100.00;103116.34;5134722;27;19922;-78
2022/03/22 09:57:25;;;;;;;;;;;;;;;14.61;100.00;103108.00;5117577;27;19916;-78
2022/03/22 09:59:51;;;;;;;;;;;;;;;14.53;100.00;103111.09;5117979;27;19919;-79
2022/03/22 10:02:25;;;;;;;;;;;;;;;14.41;100.00;103112.16;5135682;27;19922;-79
2022/03/22 10:04:51;;;;;;;;;;;;;;;14.53;100.00;103112.84;5117083;27;19976;-79
2022/03/22 10:07:17;;;;;;;;;;;;;;;14.59;100.00;103112.25;5117548;27;20363;-79
2022/03/22 10:09:50;;;;;;;;;;;;;;;14.53;100.00;103110.19;5135715;27;20006;-79
2022/03/22 10:12:24;;;;;;;;;;;;;;;15.10;100.00;103108.00;5125322;27;19923;-79
2022/03/22 10:14:53;;;;;;;;;;;;;;;15.04;100.00;103107.69;5097092;28;19916;-78
2022/03/22 10:17:18;;;;;;;;;;;;;;;15.29;100.00;103109.91;5115040;28;20712;-79
2022/03/22 10:19:47;;;;;;;;;;;;;;;15.19;100.00;103108.47;5118429;27;20018;-79
2022/03/22 10:22:13;;;;;;;;;;;;;;;15.39;100.00;103112.19;5097189;27;19923;-78
2022/03/22 10:24:46;;;;;;;;;;;;;;;15.64;100.00;103099.28;5104934;27;19938;-78
2022/03/22 10:27:22;;;;;;;;;;;;;;;15.83;100.00;103103.81;5116489;27;19919;-78
2022/03/22 10:29:48;;;;;;;;;;;;;;;15.92;100.00;103109.59;5114101;27;19980;-78
2022/03/22 10:32:14;;;;;;;;;;;;;;;16.01;100.00;103110.03;5122450;27;19989;-79
2022/03/22 10:34:42;;;;;;;;;;;;;;;16.02;100.00;103098.59;5100571;27;19919;-78
2022/03/22 10:37:07;;;;;;;;;;;;;;;15.87;100.00;103108.44;5135159;27;19916;-78
2022/03/22 10:39:34;;;;;;;;;;;;;;;15.79;100.00;103103.66;5117058;27;19915;-79
2022/03/22 10:42:06;;;;;;;;;;;;;;;15.87;100.00;103105.78;5135385;27;20019;-78
2022/03/22 10:44:38;;;;;;;;;;;;;;;16.12;100.00;103098.19;5135426;27;19915;-79
2022/03/22 10:47:04;;;;;;;;;;;;;;;15.98;100.00;103104.56;5135380;27;19915;-78
2022/03/22 10:49:30;;;;;;;;;;;;;;;16.03;100.00;103104.81;5135601;27;19956;-79
2022/03/22 10:51:56;;;;;;;;;;;;;;;16.17;100.00;103106.38;5116897;27;19915;-79
2022/03/22 10:54:22;;;;;;;;;;;;;;;16.54;100.00;103102.84;5117135;27;20317;-78
2022/03/22 10:56:55;;;;;;;;;;;;;;;16.71;100.00;103103.63;5099836;28;19927;-79
2022/03/22 10:59:22;;;;;;;;;;;;;;;16.77;100.00;103106.59;5095849;28;20318;-79
2022/03/22 11:01:52;;;;;;;;;;;;;;;16.82;100.00;103104.13;5096588;28;20014;-79
2022/03/22 11:04:19;;;;;;;;;;;;;;;16.89;100.00;103105.34;5101943;27;20014;-79
2022/03/22 11:06:46;;;;;;;;;;;;;;;16.91;100.00;103115.25;5116975;27;19915;-80
2022/03/22 11:09:15;;;;;;;;;;;;;;;16.73;100.00;103109.03;5134774;27;19960;-78
2022/03/22 11:11:40;;;;;;;;;;;;;;;16.69;100.00;103105.31;5134189;27;20382;-79
2022/03/22 11:14:06;;;;;;;;;;;;;;;16.56;100.00;103105.56;5126021;27;19920;-79
2022/03/22 11:16:32;;;;;;;;;;;;;;;16.77;100.00;103109.25;5096316;28;20077;-79
2022/03/22 11:19:01;;;;;;;;;;;;;;;16.80;100.00;103103.16;5113554;28;19920;-80
2022/03/22 11:21:27;;;;;;;;;;;;;;;16.88;100.00;103099.13;5114130;28;19926;-80
2022/03/22 11:24:10;;;;;;;;;;;;;;;16.88;100.00;103095.56;5096104;28;20006;-80
2022/03/22 11:26:45;;;;;;;;;;;;;;;17.23;100.00;103097.16;5095665;28;19912;-79
2022/03/22 11:29:15;;;;;;;;;;;;;;;17.24;100.00;103098.97;5099644;27;20027;-80
2022/03/22 11:31:41;;;;;;;;;;;;;;;17.21;100.00;103093.50;5134463;27;19915;-80
2022/03/22 11:34:09;;;;;;;;;;;;;;;17.62;100.00;103093.47;5134052;27;20232;-80
2022/03/22 11:36:43;;;;;;;;;;;;;;;17.74;100.00;103096.66;5116181;27;19984;-80
2022/03/22 11:39:09;;;;;;;;;;;;;;;17.72;100.00;103093.03;5115925;27;19919;-80
2022/03/22 11:44:29;;;;;;;;;;;;;;;17.56;100.00;103094.13;5134685;27;20599;-80
2022/03/22 11:47:00;;;;;;;;;;;;;;;17.77;100.00;103088.78;5116219;27;19942;-79
2022/03/22 11:49:25;;;;;;;;;;;;;;;17.80;100.00;103096.91;5116247;28;19915;-80
2022/03/22 11:51:55;;;;;;;;;;;;;;;17.70;100.00;103092.06;5116394;28;20269;-80
2022/03/22 11:54:24;;;;;;;;;;;;;;;17.49;100.00;103097.38;5115493;28;19923;-80
2022/03/22 11:56:50;;;;;;;;;;;;;;;17.44;100.00;103090.94;5133693;28;19919;-80
2022/03/22 11:59:16;;;;;;;;;;;;;;;17.44;100.00;103089.19;5115499;28;20236;-80
2022/03/22 12:01:53;;;;;;;;;;;;;;;17.52;100.00;103087.75;5115627;28;19926;-80
2022/03/22 12:04:18;;;;;;;;;;;;;;;17.57;100.00;103087.94;5133440;28;20014;-80
2022/03/22 12:06:44;;;;;;;;;;;;;;;17.51;100.00;103090.34;5114543;28;19970;-80
2022/03/22 12:09:09;;;;;;;;;;;;;;;17.61;100.00;103084.59;5115496;28;20281;-80
2022/03/22 12:11:35;;;;;;;;;;;;;;;17.63;100.00;103081.97;5115559;28;20524;-80
2022/03/22 12:14:07;;;;;;;;;;;;;;;17.77;100.00;103079.06;5133933;28;19984;-80
2022/03/22 12:16:32;;;;;;;;;;;;;;;17.82;100.00;103079.25;5134464;28;20025;-80
2022/03/22 12:18:58;;;;;;;;;;;;;;;17.85;100.00;103074.06;5115901;28;19966;-79
2022/03/22 12:21:24;;;;;;;;;;;;;;;17.99;100.00;103068.41;5115258;28;19969;-80
2022/03/22 12:23:58;;;;;;;;;;;;;;;18.30;100.00;103074.13;5134844;28;20341;-80
2022/03/22 12:26:25;;;;;;;;;;;;;;;18.41;100.00;103071.88;5115632;28;19919;-79
2022/03/22 12:28:58;;;;;;;;;;;;;;;18.33;100.00;103072.41;5116100;28;19919;-80
2022/03/22 12:31:25;;;;;;;;;;;;;;;18.36;100.00;103061.88;5114061;28;19919;-80
2022/03/22 12:33:51;;;;;;;;;;;;;;;18.46;100.00;103059.63;5115020;28;19950;-80
2022/03/22 12:36:18;;;;;;;;;;;;;;;18.69;100.00;103056.00;5114929;28;19958;-80
2022/03/22 12:38:44;;;;;;;;;;;;;;;18.30;100.00;103052.78;5133201;28;19927;-80
2022/03/22 12:41:09;;;;;;;;;;;;;;;18.31;100.00;103053.69;5115420;28;19920;-80
2022/03/22 12:43:45;;;;;;;;;;;;;;;18.61;100.00;103051.31;5114826;28;19992;-78
2022/03/22 12:46:11;;;;;;;;;;;;;;;18.71;100.00;103051.66;5115236;28;19915;-79
2022/03/22 12:48:36;;;;;;;;;;;;;;;18.55;100.00;103042.13;5116065;28;19971;-78
2022/03/22 12:51:03;;;;;;;;;;;;;;;18.35;100.00;103049.38;5114175;28;20383;-78
2022/03/22 12:53:28;;;;;;;;;;;;;;;18.17;100.00;103049.56;5113543;28;20022;-78
2022/03/22 12:55:53;;;;;;;;;;;;;;;18.39;100.00;103043.31;5111959;28;19965;-78
2022/03/22 12:58:26;;;;;;;;;;;;;;;18.45;100.00;103035.56;5117839;28;19919;-78